Time;durP1;ratioP1;P1;durP2;ratioP2;P2;SDS_P1;SDS_P2;PMS_P1;PMS_P2;Temp;Humidity;BMP_temperature;BMP_pressure;BME280_temperature;BME280_humidity;BME280_pressure;Samples;Min_cycle;Max_cycle;Signal;HPM_P1;HPM_P2
2023/06/05 00:00:32;;;;;;;8.10;7.40;;;24.10;67.10;;;;;;4801199;54;21509;-35
2023/06/05 00:05:33;;;;;;;8.05;7.30;;;24.10;67.10;;;;;;4836392;54;21038;-36
2023/06/05 00:10:34;;;;;;;7.82;7.03;;;24.10;67.10;;;;;;4805083;54;21010;-36
2023/06/05 00:15:35;;;;;;;8.50;7.72;;;24.10;67.10;;;;;;4988365;54;21023;-36
2023/06/05 00:20:36;;;;;;;7.60;6.90;;;24.10;67.70;;;;;;4802800;54;21667;-35
2023/06/05 00:25:37;;;;;;;7.82;7.12;;;24.10;67.10;;;;;;4799428;58;21051;-34
2023/06/05 00:30:38;;;;;;;7.97;7.28;;;24.10;67.10;;;;;;4844075;54;21475;-36
2023/06/05 00:35:39;;;;;;;7.72;7.03;;;24.10;67.10;;;;;;4935956;54;21520;-35
2023/06/05 00:40:40;;;;;;;8.32;7.28;;;24.10;67.20;;;;;;4799397;58;21508;-35
2023/06/05 00:45:41;;;;;;;7.40;6.80;;;24.10;67.20;;;;;;4809260;54;21082;-36
2023/06/05 00:50:42;;;;;;;8.60;7.90;;;24.10;67.20;;;;;;4938046;54;21018;-34
2023/06/05 00:55:43;;;;;;;7.55;6.95;;;24.10;67.20;;;;;;4812654;54;21484;-35
2023/06/05 01:00:45;;;;;;;7.68;6.97;;;24.10;67.10;;;;;;4798989;58;21098;-36
2023/06/05 01:05:49;;;;;;;7.40;6.75;;;24.10;67.20;;;;;;4911159;54;21441;-35
2023/06/05 01:10:51;;;;;;;7.47;6.87;;;24.10;67.20;;;;;;4900642;54;21002;-35
2023/06/05 01:15:54;;;;;;;7.37;6.68;;;24.10;67.20;;;;;;4799140;58;21091;-34
2023/06/05 01:21:01;;;;;;;7.97;7.20;;;24.10;67.30;;;;;;5056216;54;21529;-34
2023/06/05 01:26:04;;;;;;;7.18;6.57;;;24.10;67.30;;;;;;4800077;54;21077;-34
2023/06/05 01:31:15;;;;;;;7.50;6.90;;;24.10;67.30;;;;;;4885989;54;21500;-33
2023/06/05 01:36:17;;;;;;;7.60;6.90;;;24.10;67.30;;;;;;4818296;54;21015;-31
2023/06/05 01:41:19;;;;;;;8.00;7.20;;;24.10;67.30;;;;;;4844167;54;21057;-33
2023/06/05 01:46:22;;;;;;;7.00;6.40;;;24.10;67.30;;;;;;4858187;54;21051;-32
2023/06/05 01:51:23;;;;;;;6.55;6.03;;;24.10;67.30;;;;;;4843496;54;21006;-36
2023/06/05 01:56:24;;;;;;;7.45;6.75;;;24.10;67.30;;;;;;4811544;54;20995;-34
2023/06/05 02:01:28;;;;;;;6.95;6.35;;;24.10;67.30;;;;;;4825972;54;21504;-34
2023/06/05 02:06:32;;;;;;;7.32;6.70;;;24.10;67.40;;;;;;4954341;54;21453;-32
2023/06/05 02:11:34;;;;;;;7.60;6.90;;;24.10;67.40;;;;;;4838555;54;21488;-32
2023/06/05 02:16:36;;;;;;;6.57;6.05;;;24.10;67.30;;;;;;4852383;54;21485;-36
2023/06/05 02:21:37;;;;;;;7.03;6.43;;;24.00;67.30;;;;;;4798883;58;21014;-36
2023/06/05 02:26:38;;;;;;;7.05;6.45;;;24.10;67.40;;;;;;4982238;54;21556;-34
2023/06/05 02:31:39;;;;;;;7.10;6.50;;;24.10;67.40;;;;;;4799114;58;21015;-33
2023/06/05 02:36:40;;;;;;;7.12;6.53;;;24.10;67.40;;;;;;4810419;54;21117;-36
2023/06/05 02:41:42;;;;;;;7.32;6.40;;;24.10;67.40;;;;;;4799718;54;21472;-34
2023/06/05 02:46:43;;;;;;;6.93;6.32;;;24.10;67.30;;;;;;4823383;54;21496;-34
2023/06/05 02:51:44;;;;;;;6.68;6.12;;;24.10;67.30;;;;;;5025716;54;21007;-34
2023/06/05 02:56:45;;;;;;;6.93;6.32;;;24.10;67.30;;;;;;4823031;54;20982;-33
2023/06/05 03:01:49;;;;;;;6.75;6.15;;;24.10;67.30;;;;;;4818832;54;21066;-35
2023/06/05 03:06:53;;;;;;;6.35;5.78;;;24.10;67.30;;;;;;4831657;54;21469;-34
2023/06/05 03:11:54;;;;;;;6.93;6.32;;;24.10;67.30;;;;;;4880460;54;21511;-35
2023/06/05 03:16:55;;;;;;;6.20;5.60;;;24.00;67.20;;;;;;4814740;54;21011;-34
2023/06/05 03:21:56;;;;;;;6.45;5.85;;;24.00;67.20;;;;;;4842993;54;21647;-36
2023/06/05 03:26:56;;;;;;;7.05;6.45;;;24.00;67.30;;;;;;5022995;54;21023;-34
2023/06/05 03:31:57;;;;;;;6.87;6.28;;;24.10;67.30;;;;;;4947006;54;21580;-36
2023/06/05 03:36:58;;;;;;;6.40;5.80;;;24.10;67.40;;;;;;4826335;54;21002;-35
2023/06/05 03:42:00;;;;;;;6.85;6.25;;;24.00;67.30;;;;;;4830194;54;21026;-36
2023/06/05 03:47:01;;;;;;;6.37;5.87;;;24.00;67.30;;;;;;4914998;54;21555;-35
2023/06/05 03:52:02;;;;;;;6.28;5.78;;;24.00;67.20;;;;;;4862518;54;21826;-35
2023/06/05 03:57:04;;;;;;;6.05;5.47;;;24.00;67.10;;;;;;4865926;54;21480;-38
2023/06/05 04:02:06;;;;;;;6.60;6.00;;;24.00;67.00;;;;;;4853596;54;21662;-35
2023/06/05 04:07:07;;;;;;;6.15;5.65;;;24.00;67.10;;;;;;4814280;54;21449;-35
2023/06/05 04:12:10;;;;;;;7.53;6.30;;;24.00;66.90;;;;;;4854596;54;21015;-36
2023/06/05 04:17:12;;;;;;;6.10;5.60;;;24.00;67.00;;;;;;4800440;54;21536;-32
2023/06/05 04:22:13;;;;;;;6.62;6.03;;;24.00;66.90;;;;;;5134846;54;21500;-34
2023/06/05 04:27:14;;;;;;;6.00;5.50;;;24.00;66.70;;;;;;4895875;54;20991;-32
2023/06/05 04:32:16;;;;;;;6.15;5.65;;;24.00;66.80;;;;;;4799506;58;21536;-35
2023/06/05 04:37:17;;;;;;;6.20;5.60;;;24.00;66.70;;;;;;4919008;54;21453;-36
2023/06/05 04:42:18;;;;;;;6.57;5.87;;;24.00;66.60;;;;;;4798721;58;21078;-36
2023/06/05 04:47:19;;;;;;;6.30;5.80;;;24.00;66.70;;;;;;4799088;58;21086;-33
2023/06/05 04:52:20;;;;;;;8.20;5.65;;;24.00;66.50;;;;;;4832428;54;21062;-32
2023/06/05 04:57:24;;;;;;;6.90;6.20;;;24.00;66.40;;;;;;4963812;54;20986;-33
2023/06/05 05:02:26;;;;;;;6.40;5.78;;;24.00;66.50;;;;;;4852070;54;21529;-36
2023/06/05 05:07:28;;;;;;;6.65;6.07;;;24.00;66.40;;;;;;4835063;54;21458;-35
2023/06/05 05:12:29;;;;;;;6.75;6.10;;;24.00;66.40;;;;;;5057623;54;21144;-31
2023/06/05 05:17:30;;;;;;;6.80;6.18;;;24.00;66.40;;;;;;4816176;54;21133;-36
2023/06/05 05:22:31;;;;;;;6.57;5.97;;;24.00;66.40;;;;;;4857734;54;21014;-35
2023/06/05 05:27:32;;;;;;;7.07;6.37;;;24.00;66.30;;;;;;4799620;58;21591;-36
2023/06/05 05:32:33;;;;;;;6.90;6.20;;;24.00;66.30;;;;;;4799094;58;20998;-35
2023/06/05 05:37:34;;;;;;;6.85;5.97;;;24.00;66.40;;;;;;4953591;54;21464;-34
2023/06/05 05:42:34;;;;;;;6.75;5.97;;;24.00;66.40;;;;;;4798407;58;21034;-35
2023/06/05 05:47:35;;;;;;;8.05;6.05;;;24.00;66.30;;;;;;4901707;54;22042;-34
2023/06/05 05:52:36;;;;;;;6.68;6.00;;;24.00;66.30;;;;;;4816921;54;21006;-36
2023/06/05 05:57:37;;;;;;;6.45;5.80;;;24.00;66.20;;;;;;4831243;54;21042;-32
2023/06/05 06:02:41;;;;;;;7.22;6.15;;;24.00;66.30;;;;;;4870648;54;21065;-35
2023/06/05 06:07:42;;;;;;;7.03;6.25;;;24.00;66.30;;;;;;4931811;54;21469;-33
2023/06/05 06:12:45;;;;;;;8.07;6.22;;;24.00;66.30;;;;;;4820860;54;21568;-32
2023/06/05 06:17:46;;;;;;;7.12;6.30;;;24.00;66.30;;;;;;4818882;54;21457;-32
2023/06/05 06:22:46;;;;;;;7.50;6.12;;;24.00;66.30;;;;;;4928383;54;21019;-34
2023/06/05 06:27:53;;;;;;;7.40;6.70;;;24.00;66.30;;;;;;4799137;58;20991;-33
2023/06/05 06:32:57;;;;;;;7.22;6.43;;;24.00;66.30;;;;;;4931150;54;21587;-34
2023/06/05 06:37:58;;;;;;;7.00;5.97;;;24.00;66.30;;;;;;4950441;54;21485;-37
2023/06/05 06:42:59;;;;;;;7.40;6.70;;;24.00;66.30;;;;;;4797778;58;21058;-30
2023/06/05 06:48:00;;;;;;;7.45;6.50;;;24.00;66.30;;;;;;4857358;54;21512;-31
2023/06/05 06:53:01;;;;;;;7.53;6.70;;;24.10;66.20;;;;;;4811545;54;21046;-32
2023/06/05 06:58:02;;;;;;;7.10;6.45;;;24.10;66.10;;;;;;4796425;58;21053;-27
2023/06/05 07:03:03;;;;;;;7.62;6.82;;;24.20;66.20;;;;;;4863388;54;21027;-35
2023/06/05 07:08:04;;;;;;;8.40;6.75;;;24.20;66.20;;;;;;4799636;54;21039;-33
2023/06/05 07:13:05;;;;;;;7.87;7.07;;;24.30;66.40;;;;;;4828110;54;21600;-34
2023/06/05 07:18:06;;;;;;;7.53;6.80;;;24.30;66.40;;;;;;4836858;54;21058;-29
2023/06/05 07:23:07;;;;;;;8.15;6.72;;;24.30;66.50;;;;;;4796845;58;21054;-35
2023/06/05 07:28:15;;;;;;;8.75;7.00;;;24.40;66.50;;;;;;4804941;54;21082;-33
2023/06/05 07:33:16;;;;;;;8.02;6.82;;;24.40;66.70;;;;;;4834466;54;22360;-32
2023/06/05 07:38:17;;;;;;;8.20;6.80;;;24.40;66.70;;;;;;4852733;54;20995;-32
2023/06/05 07:43:19;;;;;;;9.18;7.00;;;24.40;66.80;;;;;;4862567;54;21059;-30
2023/06/05 07:48:20;;;;;;;7.70;6.80;;;24.40;66.80;;;;;;4807487;54;21602;-33
2023/06/05 07:53:22;;;;;;;7.87;6.95;;;24.40;66.90;;;;;;4851915;54;21493;-30
2023/06/05 07:58:22;;;;;;;10.25;7.35;;;24.40;67.10;;;;;;4797181;58;22307;-30
2023/06/05 08:03:24;;;;;;;10.95;7.15;;;24.40;67.10;;;;;;4796229;58;21002;-34
2023/06/05 08:08:25;;;;;;;8.50;7.37;;;24.50;67.20;;;;;;4824714;54;21054;-33
2023/06/05 08:13:26;;;;;;;12.18;7.47;;;24.50;67.30;;;;;;4811194;54;21066;-33
2023/06/05 08:18:27;;;;;;;10.43;7.68;;;24.50;67.30;;;;;;4796983;58;21531;-29
2023/06/05 08:23:28;;;;;;;8.30;7.37;;;24.50;67.30;;;;;;4795817;58;21011;-34
2023/06/05 08:28:29;;;;;;;10.55;8.07;;;24.50;67.50;;;;;;4808526;54;21062;-31
2023/06/05 08:33:30;;;;;;;10.23;8.25;;;24.50;67.40;;;;;;4821507;54;21583;-33
2023/06/05 08:38:31;;;;;;;9.70;8.32;;;24.50;67.40;;;;;;4798451;54;21548;-31
2023/06/05 08:43:35;;;;;;;11.95;9.02;;;24.50;67.50;;;;;;4873052;54;21093;-32
2023/06/05 08:48:47;;;;;;;9.98;8.93;;;24.40;67.40;;;;;;4926585;54;21495;-29
2023/06/05 08:54:09;;;;;;;12.93;9.38;;;24.40;67.50;;;;;;4799256;54;21045;-33
2023/06/05 08:59:14;;;;;;;12.80;9.93;;;24.40;67.60;;;;;;4835632;54;21631;-31
2023/06/05 09:04:15;;;;;;;11.93;9.80;;;24.40;67.50;;;;;;4798106;58;21453;-32
2023/06/05 09:09:16;;;;;;;12.20;9.95;;;24.40;68.10;;;;;;4865648;54;21018;-34
2023/06/05 09:14:26;;;;;;;16.40;12.75;;;24.40;67.50;;;;;;4797605;58;21058;-28
2023/06/05 09:19:37;;;;;;;16.02;11.65;;;24.40;67.40;;;;;;4797052;54;21023;-31
2023/06/05 09:24:40;;;;;;;13.73;11.15;;;24.50;67.40;;;;;;4796556;58;21348;-32
2023/06/05 09:29:43;;;;;;;14.07;11.12;;;24.50;67.70;;;;;;4819188;54;21477;-32
2023/06/05 09:34:47;;;;;;;16.10;13.05;;;24.50;67.60;;;;;;4798069;54;21054;-28
2023/06/05 09:39:50;;;;;;;17.55;13.02;;;24.50;67.60;;;;;;4850838;54;21481;-32
2023/06/05 09:45:01;;;;;;;14.77;12.40;;;24.50;67.60;;;;;;4876166;54;21003;-35
2023/06/05 09:50:03;;;;;;;14.20;12.35;;;24.50;67.60;;;;;;4870255;54;21051;-34
2023/06/05 09:55:06;;;;;;;12.95;11.52;;;24.50;67.70;;;;;;4824467;54;21104;-37
2023/06/05 10:00:08;;;;;;;14.20;11.27;;;24.40;67.70;;;;;;4854099;54;21548;-33
2023/06/05 10:05:11;;;;;;;13.48;11.70;;;24.40;67.70;;;;;;4854942;54;21003;-34
2023/06/05 10:10:12;;;;;;;13.50;11.65;;;24.40;67.70;;;;;;4826787;54;21003;-38
2023/06/05 10:15:13;;;;;;;12.98;10.85;;;24.40;67.70;;;;;;4833233;54;21011;-35
2023/06/05 10:20:14;;;;;;;13.45;11.30;;;24.40;67.70;;;;;;4798622;54;21168;-32
2023/06/05 10:25:19;;;;;;;12.40;11.10;;;24.40;67.70;;;;;;4830260;54;21624;-36
2023/06/05 10:31:28;;;;;;;13.13;10.85;;;24.50;67.80;;;;;;4812123;54;21544;-31
2023/06/05 10:36:58;;;;;;;12.13;10.82;;;24.40;67.60;;;;;;4889170;54;21465;-33
2023/06/05 10:42:00;;;;;;;12.23;10.23;;;24.40;67.60;;;;;;4797498;58;21039;-33
2023/06/05 10:47:01;;;;;;;12.07;10.82;;;24.40;68.10;;;;;;4797028;58;21047;-33
2023/06/05 10:52:03;;;;;;;12.52;11.20;;;24.50;67.70;;;;;;4910985;54;21524;-35
2023/06/05 10:57:06;;;;;;;11.88;10.60;;;24.40;67.60;;;;;;4825884;54;21599;-33
2023/06/05 11:02:28;;;;;;;11.80;10.60;;;24.50;67.70;;;;;;4797615;58;21077;-34
2023/06/05 11:07:30;;;;;;;11.35;9.88;;;24.50;67.60;;;;;;4819062;54;21045;-34
2023/06/05 11:13:50;;;;;;;12.02;9.95;;;24.50;67.60;;;;;;4820179;54;21578;-34
2023/06/05 11:18:51;;;;;;;11.70;10.50;;;24.50;67.70;;;;;;4798895;54;21110;-35
2023/06/05 11:24:14;;;;;;;13.52;10.45;;;24.50;67.80;;;;;;4818182;54;21533;-36
2023/06/05 11:29:15;;;;;;;12.35;10.77;;;24.50;67.80;;;;;;4822746;54;21551;-33
2023/06/05 11:34:16;;;;;;;12.50;10.48;;;24.50;67.70;;;;;;4821324;54;21496;-35
2023/06/05 11:39:19;;;;;;;12.20;10.90;;;24.50;67.80;;;;;;4865540;54;21105;-33
2023/06/05 11:44:35;;;;;;;13.52;10.85;;;24.50;67.70;;;;;;4830702;54;21566;-34
2023/06/05 11:49:37;;;;;;;11.60;10.07;;;24.60;67.80;;;;;;4805190;54;21604;-32
2023/06/05 11:54:45;;;;;;;11.98;10.73;;;24.60;68.00;;;;;;4804129;54;21606;-28
2023/06/05 11:59:46;;;;;;;177.40;158.75;;;24.70;68.30;;;;;;4796315;58;21742;-33
2023/06/05 12:04:47;;;;;;;251.27;225.85;;;24.80;68.30;;;;;;4816238;54;21042;-35
2023/06/05 12:09:54;;;;;;;230.07;206.60;;;24.80;68.50;;;;;;4797147;58;21058;-32
2023/06/05 12:14:55;;;;;;;230.57;207.18;;;24.90;68.60;;;;;;4796803;54;21571;-36
2023/06/05 12:19:57;;;;;;;215.23;193.73;;;24.90;68.70;;;;;;4816622;54;21543;-39
2023/06/05 12:25:21;;;;;;;202.20;181.73;;;24.90;68.70;;;;;;4808053;54;21530;-33
2023/06/05 12:30:22;;;;;;;195.07;175.32;;;25.00;68.70;;;;;;4822452;54;21054;-33
2023/06/05 12:35:24;;;;;;;190.85;171.82;;;24.90;69.30;;;;;;4842042;54;21011;-30
2023/06/05 12:40:25;;;;;;;182.32;163.82;;;24.90;69.60;;;;;;4900117;54;21511;-30
2023/06/05 12:45:30;;;;;;;187.40;168.35;;;24.90;69.70;;;;;;4716576;54;84142;-32
2023/06/05 12:50:34;;;;;;;167.05;149.68;;;24.90;69.80;;;;;;4715291;56;22188;-29
2023/06/05 12:55:34;;;;;;;170.40;153.23;;;24.90;69.80;;;;;;4657486;57;21514;-29
2023/06/05 13:00:36;;;;;;;168.50;151.10;;;24.90;69.80;;;;;;4618102;56;35909;-35
2023/06/05 13:05:37;;;;;;;393.30;352.85;;;24.90;69.90;;;;;;4652117;55;21503;-28
2023/06/05 13:10:37;;;;;;;508.73;458.83;;;24.90;70.00;;;;;;4624613;55;21037;-31
2023/06/05 13:15:38;;;;;;;492.33;443.60;;;24.90;70.00;;;;;;4675325;55;21070;-31
2023/06/05 13:20:40;;;;;;;491.10;442.98;;;24.90;70.00;;;;;;4633800;55;21105;-33
2023/06/05 13:25:41;;;;;;;423.70;379.85;;;24.90;70.10;;;;;;4623247;55;21536;-33
2023/06/05 13:30:42;;;;;;;433.02;388.73;;;24.80;70.30;;;;;;4652010;55;21053;-33
2023/06/05 13:35:43;;;;;;;435.83;391.58;;;24.70;70.30;;;;;;4615299;57;21029;-33
2023/06/05 13:40:48;;;;;;;414.37;371.73;;;24.70;70.30;;;;;;4660549;56;21125;-33
2023/06/05 13:45:49;;;;;;;415.90;373.48;;;24.60;70.40;;;;;;4657652;55;21574;-32
2023/06/05 13:50:50;;;;;;;415.85;373.77;;;24.60;70.40;;;;;;4624970;55;21010;-33
2023/06/05 13:55:50;;;;;;;408.52;366.65;;;24.60;70.40;;;;;;4648127;55;21029;-34
2023/06/05 14:00:51;;;;;;;407.58;366.65;;;24.60;70.40;;;;;;4663470;55;21178;-32
2023/06/05 14:05:52;;;;;;;398.95;358.65;;;24.60;70.40;;;;;;4671753;55;21085;-31
2023/06/05 14:10:54;;;;;;;394.83;354.98;;;24.60;70.30;;;;;;4618052;56;21029;-35
2023/06/05 14:15:54;;;;;;;385.33;346.37;;;24.50;70.30;;;;;;4631555;55;21554;-33
2023/06/05 14:20:56;;;;;;;390.55;351.05;;;24.60;70.30;;;;;;4647275;55;21085;-37
2023/06/05 14:25:57;;;;;;;379.83;341.48;;;24.50;70.20;;;;;;4614974;60;21020;-34
2023/06/05 14:30:58;;;;;;;369.77;332.35;;;24.50;70.30;;;;;;4670681;55;21525;-30
2023/06/05 14:35:59;;;;;;;360.38;324.00;;;24.50;70.30;;;;;;4615251;59;21029;-35
2023/06/05 14:41:00;;;;;;;375.15;337.17;;;24.50;70.30;;;;;;4615129;60;21547;-31
2023/06/05 14:46:00;;;;;;;368.85;331.95;;;24.50;70.40;;;;;;4615678;59;21037;-32
2023/06/05 14:51:03;;;;;;;356.77;321.20;;;24.50;70.30;;;;;;4628614;55;21673;-35
2023/06/05 14:56:05;;;;;;;357.17;321.73;;;24.50;70.20;;;;;;4615113;59;21042;-35
2023/06/05 15:01:06;;;;;;;341.23;307.30;;;24.50;70.20;;;;;;4659922;56;21081;-35
2023/06/05 15:06:07;;;;;;;350.92;316.00;;;24.50;70.20;;;;;;4615431;60;21543;-33
2023/06/05 15:11:07;;;;;;;349.33;314.65;;;24.50;70.20;;;;;;4620860;55;21492;-33
2023/06/05 15:16:08;;;;;;;345.23;310.80;;;24.50;70.20;;;;;;4652019;55;21586;-35
2023/06/05 15:21:09;;;;;;;336.00;302.55;;;24.50;70.20;;;;;;4615025;56;21096;-34
2023/06/05 15:26:10;;;;;;;340.75;306.55;;;24.50;70.30;;;;;;4706313;55;21511;-34
2023/06/05 15:31:11;;;;;;;329.40;296.67;;;24.50;70.20;;;;;;4685414;55;21009;-34
2023/06/05 15:36:12;;;;;;;330.67;298.08;;;24.50;70.20;;;;;;4626903;56;21037;-33
2023/06/05 15:41:13;;;;;;;334.50;301.58;;;24.50;70.20;;;;;;4757534;56;21105;-35
2023/06/05 15:46:13;;;;;;;324.75;292.58;;;24.40;70.20;;;;;;4658790;55;21134;-33
2023/06/05 15:51:14;;;;;;;324.02;292.37;;;24.40;70.20;;;;;;4674498;55;21435;-34
2023/06/05 15:56:16;;;;;;;317.35;286.23;;;24.40;70.20;;;;;;4697849;56;21025;-35
2023/06/05 16:01:17;;;;;;;321.92;290.30;;;24.50;70.20;;;;;;4615238;60;21483;-34
2023/06/05 16:06:18;;;;;;;322.05;290.38;;;24.40;70.20;;;;;;4664879;55;21488;-34
2023/06/05 16:11:22;;;;;;;313.62;282.80;;;24.40;70.20;;;;;;4615593;59;21543;-33
2023/06/05 16:16:23;;;;;;;314.55;283.42;;;24.50;70.20;;;;;;4692657;55;21005;-33
2023/06/05 16:21:27;;;;;;;309.35;278.80;;;24.50;70.20;;;;;;4744250;55;21037;-31
2023/06/05 16:26:27;;;;;;;302.48;272.98;;;24.50;70.20;;;;;;4633908;56;21001;-34
2023/06/05 16:31:28;;;;;;;298.77;269.50;;;24.50;70.10;;;;;;4683434;55;21077;-32
2023/06/05 16:36:29;;;;;;;304.73;274.42;;;24.40;70.10;;;;;;4703773;55;21033;-31
2023/06/05 16:41:30;;;;;;;298.98;269.83;;;24.40;70.10;;;;;;4760911;55;21107;-35
2023/06/05 16:46:31;;;;;;;292.37;263.48;;;24.40;70.10;;;;;;4615104;59;21495;-34
2023/06/05 16:51:32;;;;;;;292.92;264.40;;;24.40;70.10;;;;;;4628389;55;21586;-35
2023/06/05 16:56:33;;;;;;;293.90;265.25;;;24.40;70.10;;;;;;4615448;55;21097;-34
2023/06/05 17:01:34;;;;;;;286.37;258.38;;;24.50;70.10;;;;;;4615016;60;21503;-34
2023/06/05 17:06:35;;;;;;;286.40;258.08;;;24.40;70.10;;;;;;4637281;55;21052;-33
2023/06/05 17:11:36;;;;;;;286.92;258.52;;;24.50;70.10;;;;;;4812321;55;21491;-36
2023/06/05 17:16:37;;;;;;;280.67;253.23;;;24.40;70.10;;;;;;4619297;55;21503;-31
2023/06/05 17:21:39;;;;;;;277.23;249.68;;;24.40;70.00;;;;;;4665697;55;21527;-33
2023/06/05 17:26:39;;;;;;;283.13;255.52;;;24.40;70.00;;;;;;4620775;56;21539;-36
2023/06/05 17:31:42;;;;;;;277.83;250.57;;;24.50;70.00;;;;;;4657661;55;21013;-35
2023/06/05 17:36:43;;;;;;;276.15;249.20;;;24.40;70.00;;;;;;4692629;55;21487;-31
2023/06/05 17:41:45;;;;;;;271.42;244.73;;;24.50;70.10;;;;;;4680586;55;21058;-35
2023/06/05 17:46:49;;;;;;;271.13;244.75;;;24.40;70.00;;;;;;4614904;59;21057;-34
2023/06/05 17:51:49;;;;;;;267.62;241.65;;;24.40;70.00;;;;;;4615762;60;21100;-33
2023/06/05 17:56:55;;;;;;;273.55;246.85;;;24.40;70.00;;;;;;4615261;60;21169;-32
2023/06/05 18:01:58;;;;;;;264.87;238.57;;;24.40;70.00;;;;;;4614891;60;21036;-34
2023/06/05 18:06:59;;;;;;;265.05;239.05;;;24.40;70.00;;;;;;4730858;55;21567;-34
2023/06/05 18:12:00;;;;;;;267.35;241.23;;;24.40;70.00;;;;;;4659798;55;21483;-34
2023/06/05 18:17:01;;;;;;;262.65;237.00;;;24.40;70.00;;;;;;4658170;55;21057;-33
2023/06/05 18:22:02;;;;;;;255.35;230.12;;;24.40;70.00;;;;;;4768749;55;21578;-34
2023/06/05 18:27:05;;;;;;;254.30;229.07;;;24.40;70.00;;;;;;4724284;56;21545;-35
2023/06/05 18:32:06;;;;;;;255.50;230.52;;;24.40;70.00;;;;;;4651803;56;21546;-34
2023/06/05 18:37:10;;;;;;;257.92;232.90;;;24.40;69.90;;;;;;4641343;56;21937;-32
2023/06/05 18:42:11;;;;;;;254.43;229.23;;;24.40;69.80;;;;;;4696992;56;21086;-32
2023/06/05 18:47:12;;;;;;;253.82;228.80;;;24.40;69.90;;;;;;4614985;60;21090;-34
2023/06/05 18:52:13;;;;;;;247.88;223.38;;;24.40;69.90;;;;;;4786829;56;21020;-31
2023/06/05 18:57:14;;;;;;;246.30;222.20;;;24.40;70.00;;;;;;4635296;56;21566;-33
2023/06/05 19:02:16;;;;;;;251.88;227.15;;;24.40;69.90;;;;;;4678269;55;21484;-35
2023/06/05 19:07:16;;;;;;;240.37;216.90;;;24.40;69.90;;;;;;4713488;55;21487;-32
2023/06/05 19:12:17;;;;;;;231.27;207.85;;;24.40;69.90;;;;;;4680631;55;21022;-34
2023/06/05 19:17:18;;;;;;;236.37;213.27;;;24.40;69.90;;;;;;4617661;55;21480;-34
2023/06/05 19:22:19;;;;;;;241.93;218.30;;;24.40;69.90;;;;;;4614794;59;21066;-32
2023/06/05 19:27:22;;;;;;;233.63;210.48;;;24.40;69.90;;;;;;4634091;55;21598;-34
2023/06/05 19:32:23;;;;;;;235.68;212.27;;;24.40;69.90;;;;;;4647553;55;21072;-34
2023/06/05 19:37:24;;;;;;;229.80;207.15;;;24.40;69.90;;;;;;4759155;55;21358;-34
2023/06/05 19:42:25;;;;;;;226.05;203.68;;;24.40;69.90;;;;;;4664656;55;21029;-35
2023/06/05 19:47:26;;;;;;;224.98;202.90;;;24.40;69.90;;;;;;4614628;60;21650;-33
2023/06/05 19:52:28;;;;;;;230.07;207.40;;;24.40;69.90;;;;;;4687509;55;21544;-32
2023/06/05 19:57:29;;;;;;;225.07;203.07;;;24.40;70.00;;;;;;4677237;55;21089;-34
2023/06/05 20:02:29;;;;;;;216.70;195.20;;;24.40;69.90;;;;;;4642473;55;21175;-35
2023/06/05 20:07:30;;;;;;;220.15;198.52;;;24.40;70.00;;;;;;4656173;55;21623;-36
2023/06/05 20:12:31;;;;;;;219.70;198.10;;;24.40;69.90;;;;;;4654999;55;21022;-33
2023/06/05 20:17:33;;;;;;;212.00;191.05;;;24.40;69.90;;;;;;4615177;60;21575;-35
2023/06/05 20:22:34;;;;;;;211.77;190.73;;;24.40;69.90;;;;;;4677995;55;21462;-32
2023/06/05 20:27:37;;;;;;;209.87;189.07;;;24.40;69.90;;;;;;4717828;55;21073;-34
2023/06/05 20:32:37;;;;;;;207.07;186.50;;;24.40;69.90;;;;;;4664435;55;21741;-32
2023/06/05 20:37:39;;;;;;;204.55;184.23;;;24.40;69.90;;;;;;4803008;55;21029;-33
2023/06/05 20:42:40;;;;;;;201.70;181.93;;;24.40;69.90;;;;;;4649444;55;21476;-34
2023/06/05 20:47:42;;;;;;;205.45;185.00;;;24.40;69.90;;;;;;4733685;55;21069;-34
2023/06/05 20:52:45;;;;;;;196.15;176.65;;;24.40;69.90;;;;;;4650865;56;21510;-32
2023/06/05 20:57:47;;;;;;;197.35;177.93;;;24.40;70.00;;;;;;4695257;56;21057;-32
2023/06/05 21:02:48;;;;;;;190.12;170.90;;;24.40;69.90;;;;;;4813746;56;21562;-33
2023/06/05 21:07:49;;;;;;;188.30;169.40;;;24.40;69.90;;;;;;4615562;59;21430;-35
2023/06/05 21:12:50;;;;;;;194.77;175.43;;;24.40;70.50;;;;;;4884002;56;21574;-33
2023/06/05 21:17:50;;;;;;;187.45;168.68;;;24.40;69.90;;;;;;4637843;55;21866;-33
2023/06/05 21:22:51;;;;;;;189.20;170.25;;;24.40;69.90;;;;;;4629946;55;21501;-33
2023/06/05 21:27:52;;;;;;;186.62;168.05;;;24.40;69.90;;;;;;4655872;55;21524;-34
2023/06/05 21:32:53;;;;;;;186.85;168.27;;;24.40;69.90;;;;;;4923817;55;21434;-33
2023/06/05 21:37:54;;;;;;;181.75;163.62;;;24.40;69.90;;;;;;4685436;55;21511;-32
2023/06/05 21:42:55;;;;;;;184.40;165.77;;;24.40;69.90;;;;;;4615295;55;21109;-35
2023/06/05 21:47:55;;;;;;;179.38;161.35;;;24.40;69.90;;;;;;4625624;55;21061;-34
2023/06/05 21:52:56;;;;;;;178.82;160.90;;;24.40;69.90;;;;;;4640625;55;21559;-34
2023/06/05 21:57:57;;;;;;;180.02;162.02;;;24.40;69.90;;;;;;4658533;55;21535;-35
2023/06/05 22:02:58;;;;;;;181.90;163.68;;;24.40;69.90;;;;;;4658407;55;21093;-33
2023/06/05 22:08:01;;;;;;;175.15;157.68;;;24.40;69.90;;;;;;4768871;55;21510;-33
2023/06/05 22:13:02;;;;;;;171.27;154.25;;;24.40;70.50;;;;;;4615332;60;22296;-30
2023/06/05 22:18:05;;;;;;;172.32;154.85;;;24.40;69.90;;;;;;4733248;55;21474;-34
2023/06/05 22:23:06;;;;;;;167.70;150.73;;;24.40;69.90;;;;;;4653132;55;21631;-34
2023/06/05 22:28:07;;;;;;;172.70;155.43;;;24.40;69.80;;;;;;4615275;59;21021;-32
2023/06/05 22:33:08;;;;;;;175.35;157.88;;;24.40;69.80;;;;;;4654637;55;21518;-35
2023/06/05 22:38:09;;;;;;;171.95;154.82;;;24.40;69.90;;;;;;4675258;55;21546;-34
2023/06/05 22:43:10;;;;;;;168.52;151.45;;;24.40;69.90;;;;;;4641596;55;21575;-33
2023/06/05 22:48:11;;;;;;;168.57;151.45;;;24.40;69.90;;;;;;4750193;55;21136;-33
2023/06/05 22:53:13;;;;;;;164.68;148.43;;;24.40;69.90;;;;;;4673983;55;21499;-32
2023/06/05 22:58:14;;;;;;;164.23;147.75;;;24.40;69.80;;;;;;4615157;60;21069;-32
2023/06/05 23:03:16;;;;;;;167.95;151.18;;;24.40;69.80;;;;;;4615063;59;21579;-32
2023/06/05 23:08:18;;;;;;;164.82;147.98;;;24.40;69.80;;;;;;4786817;55;21563;-33
2023/06/05 23:13:21;;;;;;;155.80;140.10;;;24.40;69.80;;;;;;4686615;55;21465;-31
2023/06/05 23:18:22;;;;;;;160.30;144.40;;;24.40;69.80;;;;;;4639379;55;21575;-34
2023/06/05 23:23:23;;;;;;;161.35;145.25;;;24.40;69.80;;;;;;4643548;55;21081;-33
2023/06/05 23:28:23;;;;;;;159.68;143.68;;;24.40;69.80;;;;;;4675557;55;21506;-34
2023/06/05 23:33:24;;;;;;;159.63;143.65;;;24.40;69.80;;;;;;4748637;55;21093;-31
2023/06/05 23:38:25;;;;;;;158.02;142.23;;;24.40;69.90;;;;;;4769384;55;21053;-32
2023/06/05 23:43:26;;;;;;;154.32;138.95;;;24.40;69.80;;;;;;4648471;55;21013;-34
2023/06/05 23:48:27;;;;;;;156.48;140.85;;;24.40;69.80;;;;;;4673018;55;21041;-32
2023/06/05 23:53:30;;;;;;;155.50;140.05;;;24.40;70.50;;;;;;4622393;55;21009;-34
2023/06/05 23:58:31;;;;;;;154.68;139.07;;;24.40;69.80;;;;;;4621236;55;21132;-35
